CheckWX is a tool to help pilots better visualize weather data.  It is not intended as a substitute for an official pre-flight weather briefing.

15:57:42 UTC

CZFM METAR
Fort McPherson Airport
Fort Mcpherson, Canada
Current

58 mins ago

CZFM 261500Z VRB02KT 15SM OVC018 05/01 A3000 RMK SC8 SLP163
Observed
May-26 @ 15:00 UTC
Wind
  • Variable at 2 KTS
Visibility
15 SM
Flight Rules
MVFR
Cloud Levels
  • Overcast at 1,800' AGL
Temperature
C / 41°F
Dewpoint
C / 34°F
Humidity
76%
Altimeter
30" Hg
Pressure
1015.92 hPa
Previous

2 hours ago

CZFM 261400Z 00000KT 35SM BKN022 04/01 A3000 RMK SC7 R0.0/AFT 2300Z SLP162
Observed
May-26 @ 14:00 UTC
Visibility
35 SM
Flight Rules
MVFR
Cloud Levels
  • Broken at 2,200' AGL
Temperature
C / 39°F
Dewpoint
C / 34°F
Humidity
81%
Altimeter
30" Hg
Pressure
1015.92 hPa
Previous

17 hours ago

CZFM 252300Z 36002KT 35SM BKN025 07/02 A3009 RMK SC7 CIG RAG /R1.2/AFT 1300Z/LAST OBS/NXT 261400Z SLP194
Observed
May-25 @ 23:00 UTC
Wind
  • 360° at 2 KTS
Visibility
35 SM
Flight Rules
MVFR
Cloud Levels
  • Broken at 2,500' AGL
Temperature
C / 45°F
Dewpoint
C / 36°F
Humidity
71%
Altimeter
30.09" Hg
Pressure
1018.92 hPa